Ardmore, SD

10:27 PM MDT on October 19, 2014 (GMT -0600)
Chadron Municipal | Change Station
CLOSE
Current Station
Airport
Location: Chadron,
Elevation: 3297 ft
Nearby Weather Stations

Elev 3297 ft 42.84 °N, 103.10 °W | Updated 1 hour ago

Clear
Clear
45 °F
Feels Like 44 °F
N
4
Wind Variable Wind from West

Today
High -- | Low -- °F
--% Chance of Precip.
Yesterday
High -- | Low -- °F
Precip. -- in
7:13 AM 6:05 PM
Waning Crescent, 13% visible
Pressure 30.11 in
Visibility 10.0 miles
Clouds Clear
Windchill 44 °F
Dew Point 39 °F
Humidity 80%
Rainfall 0.00 in
Snow Depth Not available.
UV 0 out of 12
Pollen 2.80 out of 12
Air Quality Not available.
Flu Activity Sporadic
METAR KCDR 200253Z AUTO 26003KT 10SM CLR 07/04 A3008 RMK AO2 SLP196 T00720039 51011

More Conditions Fewer Conditions

Pressure 30.11 in
Visibility 10.0 miles
Clouds Clear
Windchill 44 °F
Dew Point 39 °F
Humidity 80%
Rainfall 0.00 in
Snow Depth Not available.
UV 0 out of 12
Pollen 2.80 out of 12
Air Quality Not available.
Flu Activity Sporadic
METAR KCDR 200253Z AUTO 26003KT 10SM CLR 07/04 A3008 RMK AO2 SLP196 T00720039 51011

More Conditions Fewer Conditions

10-Day Weather Forecast

Almanac

Astronomy

Oct. 19, 2014 Rise Set
Actual Time 7:13 AM MDT 6:05 PM MDT
Civil Twilight 6:44 AM MDT 6:34 PM MDT
Nautical Twilight 6:11 AM MDT 7:07 PM MDT
Astronomical Twilight 5:38 AM MDT 7:39 PM MDT
Moon 3:02 AM MDT (10/19) 4:03 PM MDT (10/19)
Length of Visible Light 11h 49m
Length of Day
10h 52m
Waning Crescent, 13% of the Moon is Illuminated
Oct 20
Waning Crescent
Oct 23
New
Oct 30
First Quarter
Nov 6
Full
Nov 14
Last Quarter

Yesterday's Extremes

State Highs State Lows

Community

WunderPhotos

Upload Photos

1,763,294 photos uploaded!

Nearby

Snow Depth

Station Depth Elevation
Blind Park 0 in 6890 ft
North Rapid Creek 0 in 6130 ft

Earthquake Activity

City Distance Mag. Time & Date
No recent earthquake activity has been reported nearby.
Minimum magnitude displayed is 2.5.

Coastal Water Temperatures

Place Temperature
No Stations Reporting

Nearby Weather Stations